Time;durP1;ratioP1;P1;durP2;ratioP2;P2;SDS_P1;SDS_P2;PMS_P1;PMS_P2;Temp;Humidity;BMP_temperature;BMP_pressure;BME280_temperature;BME280_humidity;BME280_pressure;Samples;Min_cycle;Max_cycle;Signal;HPM_P1;HPM_P2
2021/03/29 00:00:46;;;;;;;;;;;;;;;3.30;63.96;100907.93;1761815;80;20361;-69
2021/03/29 00:03:13;;;;;;;;;;;;;;;3.34;64.15;100906.88;1764828;81;20235;-70
2021/03/29 00:05:41;;;;;;;;;;;;;;;3.36;64.62;100901.59;1760151;81;20226;-70
2021/03/29 00:08:16;;;;;;;;;;;;;;;3.35;64.87;100902.50;1764989;81;20235;-70
2021/03/29 00:10:46;;;;;;;;;;;;;;;3.28;65.15;100898.02;1764657;81;21895;-70
2021/03/29 00:13:16;;;;;;;;;;;;;;;3.28;65.54;100905.84;1781272;79;20271;-70
2021/03/29 00:15:47;;;;;;;;;;;;;;;3.33;65.82;100899.96;1787927;79;20224;-69
2021/03/29 00:18:17;;;;;;;;;;;;;;;3.36;65.77;100903.74;1779389;79;20240;-69
2021/03/29 00:20:56;;;;;;;;;;;;;;;3.30;65.87;100896.18;1741497;80;20254;-70
2021/03/29 00:23:23;;;;;;;;;;;;;;;3.34;65.97;100902.11;1784672;79;22756;-69
2021/03/29 00:25:51;;;;;;;;;;;;;;;3.44;66.09;100906.05;1798522;79;21262;-69
2021/03/29 00:28:20;;;;;;;;;;;;;;;3.53;66.23;100904.81;1786522;79;20220;-69
2021/03/29 00:30:49;;;;;;;;;;;;;;;3.64;66.42;100906.52;1776704;79;20554;-69
2021/03/29 00:33:16;;;;;;;;;;;;;;;3.73;66.39;100903.52;1792431;79;20269;-69
2021/03/29 00:35:46;;;;;;;;;;;;;;;3.79;66.33;100905.03;1795608;79;21501;-69
2021/03/29 00:38:14;;;;;;;;;;;;;;;3.87;66.44;100909.02;1798398;79;20238;-69
2021/03/29 00:40:46;;;;;;;;;;;;;;;3.90;66.30;100904.95;1794391;79;20210;-69
2021/03/29 00:43:20;;;;;;;;;;;;;;;3.92;66.25;100899.20;1782518;79;21206;-71
2021/03/29 00:45:49;;;;;;;;;;;;;;;3.90;66.31;100900.19;1789008;79;20288;-70
2021/03/29 00:48:19;;;;;;;;;;;;;;;3.83;66.27;100903.52;1788399;79;22521;-70
2021/03/29 00:50:52;;;;;;;;;;;;;;;3.82;66.39;100904.89;1790611;79;20723;-69
2021/03/29 00:53:21;;;;;;;;;;;;;;;3.79;66.31;100905.88;1772221;79;20237;-69
2021/03/29 00:55:51;;;;;;;;;;;;;;;3.74;66.42;100903.91;1794363;79;20550;-70
2021/03/29 00:58:21;;;;;;;;;;;;;;;3.66;66.48;100901.61;1786528;79;20389;-71
2021/03/29 01:00:55;;;;;;;;;;;;;;;3.62;66.67;100904.43;1782290;79;22036;-69
2021/03/29 01:03:25;;;;;;;;;;;;;;;3.64;66.80;100907.36;1795853;79;20339;-69
2021/03/29 01:06:05;;;;;;;;;;;;;;;3.69;66.89;100898.89;1791718;79;20236;-70
2021/03/29 01:08:34;;;;;;;;;;;;;;;3.66;66.89;100904.68;1766662;79;20463;-69
2021/03/29 01:11:04;;;;;;;;;;;;;;;3.60;66.91;100911.03;1783505;79;20220;-69
2021/03/29 01:13:38;;;;;;;;;;;;;;;3.52;66.92;100910.50;1793021;79;22049;-69
2021/03/29 01:16:06;;;;;;;;;;;;;;;3.46;66.93;100909.44;1799210;79;20477;-69
2021/03/29 01:18:34;;;;;;;;;;;;;;;3.39;66.80;100910.16;1795200;79;20404;-70
2021/03/29 01:21:17;;;;;;;;;;;;;;;3.37;66.95;100912.42;1788016;79;21166;-68
2021/03/29 01:23:44;;;;;;;;;;;;;;;3.35;67.33;100912.95;1786852;79;20277;-68
2021/03/29 01:26:15;;;;;;;;;;;;;;;3.31;67.30;100913.55;1766137;79;22069;-69
2021/03/29 01:28:43;;;;;;;;;;;;;;;3.30;67.43;100918.37;1771866;79;20390;-70
2021/03/29 01:31:10;;;;;;;;;;;;;;;3.29;67.64;100919.75;1783531;79;20223;-70
2021/03/29 01:33:38;;;;;;;;;;;;;;;3.29;67.82;100916.67;1785832;79;20477;-70
2021/03/29 01:36:05;;;;;;;;;;;;;;;3.28;68.03;100914.98;1797351;79;20417;-69
2021/03/29 01:38:33;;;;;;;;;;;;;;;3.29;68.17;100912.76;1783345;79;22516;-69
2021/03/29 01:41:00;;;;;;;;;;;;;;;3.28;68.18;100916.29;1795751;79;20901;-69
2021/03/29 01:43:27;;;;;;;;;;;;;;;3.22;68.16;100916.52;1775185;79;20220;-69
2021/03/29 01:45:55;;;;;;;;;;;;;;;3.19;68.23;100923.18;1749930;79;20480;-70
2021/03/29 01:48:23;;;;;;;;;;;;;;;3.21;68.76;100917.89;1785417;79;20220;-69
2021/03/29 01:50:53;;;;;;;;;;;;;;;3.22;68.81;100918.28;1741817;81;21891;-69
2021/03/29 01:53:19;;;;;;;;;;;;;;;3.19;69.08;100921.87;1780866;79;20222;-70
2021/03/29 01:55:48;;;;;;;;;;;;;;;3.19;69.38;100920.58;1760831;79;20409;-69
2021/03/29 01:58:16;;;;;;;;;;;;;;;3.21;69.51;100917.44;1796136;79;20767;-68
2021/03/29 02:00:47;;;;;;;;;;;;;;;3.21;69.57;100917.44;1794733;79;20215;-68
2021/03/29 02:03:14;;;;;;;;;;;;;;;3.20;69.64;100914.44;1794178;79;22069;-68
2021/03/29 02:05:41;;;;;;;;;;;;;;;3.16;69.85;100918.06;1789282;79;20375;-69
2021/03/29 02:08:09;;;;;;;;;;;;;;;3.14;70.16;100918.59;1798717;79;20226;-68
2021/03/29 02:10:39;;;;;;;;;;;;;;;3.16;70.32;100916.75;1790144;79;20455;-68
2021/03/29 02:13:13;;;;;;;;;;;;;;;3.19;70.53;100920.58;1775752;79;20269;-68
2021/03/29 02:15:43;;;;;;;;;;;;;;;3.21;70.57;100917.89;1751638;80;21191;-69
2021/03/29 02:18:22;;;;;;;;;;;;;;;3.19;70.67;100916.66;1775272;80;21249;-69
2021/03/29 02:20:49;;;;;;;;;;;;;;;3.16;70.72;100912.84;1779792;80;20421;-69
2021/03/29 02:23:20;;;;;;;;;;;;;;;3.18;71.17;100916.69;1755271;80;20480;-69
2021/03/29 02:25:48;;;;;;;;;;;;;;;3.16;71.24;100916.75;1778602;80;20231;-69
2021/03/29 02:28:16;;;;;;;;;;;;;;;3.14;71.33;100915.52;1776414;80;22030;-69
2021/03/29 02:30:43;;;;;;;;;;;;;;;3.14;71.47;100914.22;1760878;80;20270;-69
2021/03/29 02:33:12;;;;;;;;;;;;;;;3.19;71.48;100914.05;1780049;80;20218;-69
2021/03/29 02:35:40;;;;;;;;;;;;;;;3.22;71.41;100918.28;1767447;80;21430;-69
2021/03/29 02:38:13;;;;;;;;;;;;;;;3.20;71.30;100918.81;1769192;80;20239;-69
2021/03/29 02:40:41;;;;;;;;;;;;;;;3.16;71.31;100918.06;1764453;81;22482;-69
2021/03/29 02:43:09;;;;;;;;;;;;;;;3.15;71.38;100917.67;1779683;80;20450;-70
2021/03/29 02:45:37;;;;;;;;;;;;;;;3.11;71.37;100924.78;1771271;80;20341;-70
2021/03/29 02:48:07;;;;;;;;;;;;;;;3.04;71.31;100923.32;1772624;80;20893;-70
2021/03/29 02:50:36;;;;;;;;;;;;;;;3.02;71.25;100921.23;1759397;80;20292;-70
2021/03/29 02:53:06;;;;;;;;;;;;;;;3.00;71.26;100923.52;1757892;80;22941;-70
2021/03/29 02:55:33;;;;;;;;;;;;;;;2.98;71.18;100931.84;1778032;80;20996;-70
2021/03/29 02:58:03;;;;;;;;;;;;;;;2.95;71.21;100935.42;1779067;80;20231;-69
2021/03/29 03:00:32;;;;;;;;;;;;;;;2.94;71.27;100934.19;1779896;80;20437;-70
2021/03/29 03:03:00;;;;;;;;;;;;;;;2.90;71.27;100935.22;1763192;80;20250;-70
2021/03/29 03:05:29;;;;;;;;;;;;;;;2.85;71.19;100934.93;1767620;80;23079;-69
2021/03/29 03:07:56;;;;;;;;;;;;;;;2.82;71.16;100944.64;1778726;80;21767;-70
2021/03/29 03:10:24;;;;;;;;;;;;;;;2.78;71.19;100937.37;1780116;80;20565;-69
2021/03/29 03:12:52;;;;;;;;;;;;;;;2.74;71.35;100939.71;1780815;80;20733;-69
2021/03/29 03:15:22;;;;;;;;;;;;;;;2.73;71.33;100948.45;1790941;79;20237;-70
2021/03/29 03:17:49;;;;;;;;;;;;;;;2.71;71.35;100951.58;1785207;79;22344;-70
2021/03/29 03:20:17;;;;;;;;;;;;;;;2.70;71.41;100950.30;1788859;79;20754;-70
2021/03/29 03:23:03;;;;;;;;;;;;;;;2.67;71.45;100955.19;1798345;79;20226;-69
2021/03/29 03:25:34;;;;;;;;;;;;;;;2.63;71.72;100961.44;1785815;79;20544;-70
2021/03/29 03:28:04;;;;;;;;;;;;;;;2.62;71.89;100959.74;1776707;79;20230;-69
2021/03/29 03:30:33;;;;;;;;;;;;;;;2.61;72.01;100967.17;1794871;79;22577;-69
2021/03/29 03:33:01;;;;;;;;;;;;;;;2.61;72.20;100975.00;1759357;80;21273;-69
2021/03/29 03:35:29;;;;;;;;;;;;;;;2.62;72.45;100974.09;1781168;79;20481;-71
2021/03/29 03:38:05;;;;;;;;;;;;;;;2.64;72.57;100976.63;1781725;79;21451;-70
2021/03/29 03:40:32;;;;;;;;;;;;;;;2.63;72.66;100978.84;1774384;79;20238;-70
2021/03/29 03:43:00;;;;;;;;;;;;;;;2.63;72.82;100975.78;1792892;79;22525;-69
2021/03/29 03:45:31;;;;;;;;;;;;;;;2.66;72.99;100979.58;1788110;79;21360;-69
2021/03/29 03:47:58;;;;;;;;;;;;;;;2.69;73.09;100983.81;1798671;79;20225;-69
2021/03/29 03:50:25;;;;;;;;;;;;;;;2.67;73.11;100983.88;1790403;79;20868;-69
2021/03/29 03:52:52;;;;;;;;;;;;;;;2.66;73.09;100991.31;1797841;79;20218;-69
2021/03/29 03:55:19;;;;;;;;;;;;;;;2.65;73.15;100997.44;1784674;79;21801;-69
2021/03/29 03:57:46;;;;;;;;;;;;;;;2.66;73.41;100999.13;1796913;79;20280;-69
2021/03/29 04:00:15;;;;;;;;;;;;;;;2.69;73.53;101005.53;1790615;79;20291;-70
2021/03/29 04:02:44;;;;;;;;;;;;;;;2.72;73.62;101006.75;1785523;79;20309;-69
2021/03/29 04:05:13;;;;;;;;;;;;;;;2.74;73.72;101010.14;1798431;79;21517;-72
2021/03/29 04:07:42;;;;;;;;;;;;;;;2.77;73.80;101019.15;1794511;79;22730;-68
2021/03/29 04:12:43;;;;;;;;;;;;;;;2.83;73.87;101029.37;1776874;79;20238;-70
2021/03/29 04:15:13;;;;;;;;;;;;;;;2.83;73.88;101026.76;1790485;79;20287;-69
2021/03/29 04:17:41;;;;;;;;;;;;;;;2.83;73.83;101029.37;1786318;80;20226;-70
2021/03/29 04:20:10;;;;;;;;;;;;;;;2.84;73.81;101028.91;1787091;79;22686;-71
2021/03/29 04:22:37;;;;;;;;;;;;;;;2.83;73.84;101029.37;1792688;79;20743;-71
2021/03/29 04:25:09;;;;;;;;;;;;;;;2.85;73.84;101035.38;1791555;79;20222;-72
2021/03/29 04:27:36;;;;;;;;;;;;;;;2.86;73.92;101030.55;1782235;79;20434;-71
2021/03/29 04:30:05;;;;;;;;;;;;;;;2.87;73.88;101047.90;1784203;79;20221;-70
2021/03/29 04:32:33;;;;;;;;;;;;;;;2.93;73.84;101045.98;1783167;79;22984;-69
2021/03/29 04:35:00;;;;;;;;;;;;;;;2.94;73.84;101055.52;1786442;79;20361;-69
2021/03/29 04:37:27;;;;;;;;;;;;;;;2.95;73.82;101055.45;1798207;79;20297;-72
2021/03/29 04:39:54;;;;;;;;;;;;;;;2.96;73.76;101060.22;1789598;79;20469;-71
2021/03/29 04:42:22;;;;;;;;;;;;;;;2.98;73.73;101067.07;1777044;79;20273;-71
2021/03/29 04:44:49;;;;;;;;;;;;;;;2.99;73.70;101062.28;1783552;79;22073;-71
2021/03/29 04:47:17;;;;;;;;;;;;;;;3.01;73.68;101073.96;1797765;79;21361;-71
2021/03/29 04:49:44;;;;;;;;;;;;;;;3.04;73.63;101071.23;1793871;79;20233;-70
2021/03/29 04:52:11;;;;;;;;;;;;;;;3.07;73.69;101069.80;1795332;79;20908;-71
2021/03/29 04:54:39;;;;;;;;;;;;;;;3.11;73.70;101074.86;1798260;79;20226;-71
2021/03/29 04:57:07;;;;;;;;;;;;;;;3.17;73.71;101081.59;1798729;79;22776;-71
2021/03/29 04:59:34;;;;;;;;;;;;;;;3.23;73.69;101085.75;1798367;79;20271;-71
2021/03/29 05:02:01;;;;;;;;;;;;;;;3.28;73.60;101082.49;1783514;79;20219;-70
2021/03/29 05:04:28;;;;;;;;;;;;;;;3.33;73.55;101086.64;1767505;81;20269;-70
2021/03/29 05:06:57;;;;;;;;;;;;;;;3.38;73.51;101091.25;1782951;79;20270;-70
2021/03/29 05:09:24;;;;;;;;;;;;;;;3.45;73.43;101086.62;1796366;79;22133;-71
2021/03/29 05:11:53;;;;;;;;;;;;;;;3.52;73.41;101088.55;1778814;79;20816;-71
2021/03/29 05:14:20;;;;;;;;;;;;;;;3.58;73.35;101090.94;1791615;79;20226;-71
2021/03/29 05:16:49;;;;;;;;;;;;;;;3.64;73.29;101094.14;1798904;79;20504;-71
2021/03/29 05:19:16;;;;;;;;;;;;;;;3.72;73.18;101091.23;1785755;79;20268;-71
2021/03/29 05:21:43;;;;;;;;;;;;;;;3.78;73.06;101092.31;1788835;79;22082;-71
2021/03/29 05:24:11;;;;;;;;;;;;;;;3.85;72.95;101093.73;1797715;79;20821;-71
2021/03/29 05:26:38;;;;;;;;;;;;;;;3.92;72.73;101099.13;1798742;79;20508;-72
2021/03/29 05:29:05;;;;;;;;;;;;;;;3.96;72.45;101099.41;1771164;79;20473;-71
2021/03/29 05:31:39;;;;;;;;;;;;;;;4.02;72.31;101100.45;1785651;79;20265;-71
2021/03/29 05:34:02;;;;;;;;;;;;;;;4.09;72.11;101102.83;1797155;79;21970;-71
2021/03/29 05:36:29;;;;;;;;;;;;;;;4.14;71.87;101104.78;1790721;79;20277;-71
2021/03/29 05:38:56;;;;;;;;;;;;;;;4.17;71.49;101105.98;1790976;79;20218;-72
2021/03/29 05:41:23;;;;;;;;;;;;;;;4.18;71.11;101109.84;1789199;79;20506;-73
2021/03/29 05:43:51;;;;;;;;;;;;;;;4.21;70.85;101112.77;1791255;79;20386;-72
2021/03/29 05:46:18;;;;;;;;;;;;;;;4.26;70.73;101114.75;1789743;79;23381;-73
2021/03/29 05:48:46;;;;;;;;;;;;;;;4.33;70.54;101117.48;1794350;79;20215;-73
2021/03/29 05:51:13;;;;;;;;;;;;;;;4.38;70.16;101115.55;1791989;79;20281;-73
2021/03/29 05:53:40;;;;;;;;;;;;;;;4.45;69.95;101124.00;1790181;79;20473;-73
2021/03/29 05:56:10;;;;;;;;;;;;;;;4.51;69.72;101125.88;1791502;79;20245;-71
2021/03/29 05:59:02;;;;;;;;;;;;;;;4.58;69.55;101129.94;1794300;79;22506;-71
2021/03/29 06:01:14;;;;;;;;;;;;;;;4.66;69.21;101123.53;1789406;79;20218;-71
2021/03/29 06:03:41;;;;;;;;;;;;;;;4.72;68.96;101129.33;1793757;79;20208;-72
2021/03/29 06:06:16;;;;;;;;;;;;;;;4.81;68.74;101126.78;1785872;79;22632;-72
2021/03/29 06:08:48;;;;;;;;;;;;;;;4.86;68.23;101132.68;1790450;79;20216;-72
2021/03/29 06:11:26;;;;;;;;;;;;;;;4.88;67.97;101131.69;1740006;81;22993;-73
2021/03/29 06:14:11;;;;;;;;;;;;;;;4.93;67.69;101136.73;1784237;80;20265;-76
2021/03/29 06:17:01;;;;;;;;;;;;;;;5.01;67.57;101137.69;1785244;80;20214;-84
2021/03/29 06:19:38;;;;;;;;;;;;;;;5.07;67.25;101138.27;1789013;80;21139;-73
2021/03/29 06:22:12;;;;;;;;;;;;;;;5.15;67.03;101140.09;1783833;80;20233;-71
2021/03/29 06:25:08;;;;;;;;;;;;;;;5.26;66.82;101149.24;1737584;80;22134;-71
2021/03/29 06:27:39;;;;;;;;;;;;;;;5.29;66.17;101149.09;1752293;81;22542;-70
2021/03/29 06:30:17;;;;;;;;;;;;;;;5.28;66.08;101153.95;1765471;80;20241;-70
2021/03/29 06:33:07;;;;;;;;;;;;;;;5.36;66.03;101162.31;1774106;80;20486;-70
2021/03/29 06:35:53;;;;;;;;;;;;;;;5.47;65.85;101157.44;1763150;80;20236;-70
2021/03/29 06:38:27;;;;;;;;;;;;;;;5.56;65.62;101157.47;1762352;81;22990;-70
2021/03/29 06:40:59;;;;;;;;;;;;;;;5.63;65.32;101168.07;1760949;81;20938;-70
2021/03/29 06:43:28;;;;;;;;;;;;;;;5.67;64.86;101174.86;1769568;80;20241;-70
2021/03/29 06:46:06;;;;;;;;;;;;;;;5.68;64.78;101166.92;1768295;80;20453;-72
2021/03/29 06:48:36;;;;;;;;;;;;;;;5.71;64.67;101172.50;1768854;80;20233;-69
2021/03/29 06:51:13;;;;;;;;;;;;;;;5.79;64.44;101173.00;1775322;80;21899;-71
2021/03/29 06:53:43;;;;;;;;;;;;;;;5.86;64.12;101166.98;1787031;80;20806;-71
2021/03/29 06:56:27;;;;;;;;;;;;;;;5.92;64.02;101175.45;1733537;82;20235;-74
2021/03/29 06:58:57;;;;;;;;;;;;;;;6.00;63.91;101175.09;1732455;83;20535;-73
2021/03/29 07:01:25;;;;;;;;;;;;;;;6.10;63.56;101178.98;1756626;80;20405;-75
2021/03/29 07:03:53;;;;;;;;;;;;;;;6.18;63.41;101184.71;1781062;79;22066;-74
2021/03/29 07:06:23;;;;;;;;;;;;;;;6.27;63.10;101185.58;1776675;80;21159;-75
2021/03/29 07:08:51;;;;;;;;;;;;;;;6.32;62.76;101191.91;1787738;80;20235;-75
2021/03/29 07:11:19;;;;;;;;;;;;;;;6.39;62.67;101189.84;1764300;80;20459;-73
2021/03/29 07:13:48;;;;;;;;;;;;;;;6.48;62.43;101195.95;1778880;79;20273;-74
2021/03/29 07:16:18;;;;;;;;;;;;;;;6.60;62.18;101197.49;1793006;80;20321;-75
2021/03/29 07:18:47;;;;;;;;;;;;;;;6.70;61.91;101198.34;1793493;80;20270;-74
2021/03/29 07:21:16;;;;;;;;;;;;;;;6.81;61.62;101206.06;1770247;80;20218;-75
2021/03/29 07:23:43;;;;;;;;;;;;;;;6.89;61.10;101201.28;1782551;80;20468;-75
2021/03/29 07:26:29;;;;;;;;;;;;;;;6.97;61.06;101207.92;1763815;81;20248;-75
2021/03/29 07:28:56;;;;;;;;;;;;;;;7.08;60.73;101206.44;1764205;80;21944;-73
2021/03/29 07:31:38;;;;;;;;;;;;;;;7.16;60.18;101207.36;1778028;80;20741;-71
2021/03/29 07:34:06;;;;;;;;;;;;;;;7.22;60.04;101212.28;1779754;80;20631;-74
2021/03/29 07:36:50;;;;;;;;;;;;;;;7.28;59.49;101219.01;1790979;80;20442;-74
2021/03/29 07:39:23;;;;;;;;;;;;;;;7.27;59.30;101218.62;1792652;80;20264;-74
2021/03/29 07:41:57;;;;;;;;;;;;;;;7.29;59.49;101229.44;1774138;80;22954;-77
2021/03/29 07:44:24;;;;;;;;;;;;;;;7.38;59.16;101225.48;1770309;80;20455;-73
2021/03/29 07:46:55;;;;;;;;;;;;;;;7.40;58.84;101234.13;1788129;80;20433;-71
2021/03/29 07:49:44;;;;;;;;;;;;;;;7.40;58.87;101235.44;1794455;80;20442;-72
2021/03/29 07:52:31;;;;;;;;;;;;;;;7.46;58.79;101237.76;1773525;80;20403;-70
2021/03/29 07:55:00;;;;;;;;;;;;;;;7.57;58.87;101243.30;1770368;80;22992;-68
2021/03/29 07:57:47;;;;;;;;;;;;;;;7.71;58.74;101249.12;1794749;80;22376;-67
2021/03/29 08:00:29;;;;;;;;;;;;;;;7.83;58.71;101245.00;1782646;80;20553;-71
2021/03/29 08:02:59;;;;;;;;;;;;;;;7.95;58.20;101249.59;1780312;80;20463;-72
2021/03/29 08:05:45;;;;;;;;;;;;;;;8.02;58.20;101252.28;1791217;80;20221;-73
2021/03/29 08:08:33;;;;;;;;;;;;;;;8.13;57.74;101253.00;1788765;80;23061;-68
2021/03/29 08:11:17;;;;;;;;;;;;;;;8.23;57.71;101255.50;1792307;80;20238;-69
2021/03/29 08:13:54;;;;;;;;;;;;;;;8.35;57.29;101261.42;1790281;80;20235;-73
2021/03/29 08:16:28;;;;;;;;;;;;;;;8.48;57.27;101252.36;1775754;80;20237;-74
2021/03/29 08:19:17;;;;;;;;;;;;;;;8.63;56.85;101254.61;1779272;80;20287;-72
2021/03/29 08:21:57;;;;;;;;;;;;;;;8.71;56.67;101251.91;1790230;80;20399;-72
2021/03/29 08:24:33;;;;;;;;;;;;;;;8.87;56.63;101254.48;1792300;80;21255;-72
2021/03/29 08:27:07;;;;;;;;;;;;;;;9.04;56.20;101247.77;1791626;80;20404;-72
2021/03/29 08:29:36;;;;;;;;;;;;;;;9.18;55.99;101251.77;1781836;80;20469;-72
2021/03/29 08:32:10;;;;;;;;;;;;;;;9.32;55.38;101251.40;1776726;80;20222;-72
2021/03/29 08:34:51;;;;;;;;;;;;;;;9.39;55.20;101245.67;1788469;80;22504;-72
2021/03/29 08:37:22;;;;;;;;;;;;;;;9.56;55.34;101251.72;1769994;80;21321;-72
2021/03/29 08:39:50;;;;;;;;;;;;;;;9.73;54.82;101243.12;1781969;80;20601;-73
2021/03/29 08:42:18;;;;;;;;;;;;;;;9.89;54.48;101246.98;1794981;80;20282;-72
2021/03/29 08:44:47;;;;;;;;;;;;;;;10.03;54.45;101244.30;1786989;80;20246;-74
2021/03/29 08:47:17;;;;;;;;;;;;;;;10.15;53.84;101242.70;1777468;80;22816;-74
2021/03/29 08:49:45;;;;;;;;;;;;;;;10.29;53.57;101246.64;1780306;80;20489;-72
2021/03/29 08:52:12;;;;;;;;;;;;;;;10.44;53.58;101246.14;1793506;80;20217;-72
2021/03/29 08:54:53;;;;;;;;;;;;;;;10.58;53.20;101242.59;1794299;80;20472;-74
2021/03/29 08:57:29;;;;;;;;;;;;;;;10.76;52.63;101237.41;1863098;74;20185;-71
2021/03/29 09:00:09;;;;;;;;;;;;;;;10.80;52.51;101245.50;1833761;77;20223;-79
2021/03/29 09:02:36;;;;;;;;;;;;;;;10.93;52.12;101248.67;1830737;75;21886;-71
2021/03/29 09:05:06;;;;;;;;;;;;;;;11.03;52.11;101247.09;1844950;75;20471;-73
2021/03/29 09:07:37;;;;;;;;;;;;;;;11.11;51.62;101243.47;1848758;77;20216;-74
2021/03/29 09:10:26;;;;;;;;;;;;;;;11.11;51.51;101247.44;1837720;75;20211;-73
2021/03/29 09:13:00;;;;;;;;;;;;;;;11.18;51.44;101252.17;1843183;77;20226;-73
2021/03/29 09:15:32;;;;;;;;;;;;;;;11.36;51.45;101258.49;1869598;75;22631;-72
2021/03/29 09:18:04;;;;;;;;;;;;;;;11.50;51.36;101257.08;1876505;75;20417;-72
2021/03/29 09:20:33;;;;;;;;;;;;;;;11.60;50.44;101252.00;1854423;75;20257;-73
2021/03/29 09:23:00;;;;;;;;;;;;;;;11.62;49.56;101254.05;1843297;75;20244;-73
2021/03/29 09:25:38;;;;;;;;;;;;;;;11.56;50.14;101252.66;1847516;75;20217;-73
2021/03/29 09:31:00;;;;;;;;;;;;;;;11.83;49.37;101257.87;1825200;77;21234;-70
2021/03/29 09:33:30;;;;;;;;;;;;;;;11.92;49.89;101258.54;1839314;75;20237;-76
2021/03/29 09:36:06;;;;;;;;;;;;;;;12.11;48.77;101266.02;1831359;77;21234;-72
2021/03/29 09:38:42;;;;;;;;;;;;;;;12.24;48.42;101265.50;1829916;78;20215;-72
2021/03/29 09:41:20;;;;;;;;;;;;;;;12.41;47.49;101264.28;1839927;75;22011;-74
2021/03/29 09:43:49;;;;;;;;;;;;;;;12.52;47.07;101266.98;1845602;76;20362;-71
2021/03/29 09:46:17;;;;;;;;;;;;;;;12.56;45.93;101253.89;1846409;75;20239;-73
2021/03/29 09:48:45;;;;;;;;;;;;;;;12.57;46.92;101257.39;1865220;75;20234;-71
2021/03/29 09:51:23;;;;;;;;;;;;;;;12.71;46.22;101251.90;1851376;77;20233;-71
2021/03/29 09:53:51;;;;;;;;;;;;;;;12.87;46.45;101256.43;1849796;75;22989;-71
2021/03/29 09:56:31;;;;;;;;;;;;;;;13.12;45.98;101257.22;1836922;75;20272;-72
2021/03/29 09:58:59;;;;;;;;;;;;;;;13.35;45.60;101259.49;1833407;78;20482;-72
2021/03/29 10:01:27;;;;;;;;;;;;;;;13.61;45.50;101260.14;1833431;77;20371;-72
2021/03/29 10:03:56;;;;;;;;;;;;;;;13.88;44.97;101257.94;1850203;75;20222;-74
2021/03/29 10:06:24;;;;;;;;;;;;;;;14.15;43.73;101264.20;1866105;77;22060;-73
2021/03/29 10:08:57;;;;;;;;;;;;;;;14.28;42.37;101259.60;1870792;76;21137;-71
2021/03/29 10:11:25;;;;;;;;;;;;;;;14.35;41.63;101255.10;1852517;76;20315;-73
2021/03/29 10:14:04;;;;;;;;;;;;;;;14.28;41.71;101269.36;1849224;75;20257;-73
2021/03/29 10:16:31;;;;;;;;;;;;;;;14.26;40.79;101258.02;1851039;77;20494;-74
2021/03/29 10:19:07;;;;;;;;;;;;;;;14.08;41.89;101266.98;1839749;77;22059;-72
2021/03/29 10:21:55;;;;;;;;;;;;;;;14.21;42.23;101266.86;1832624;78;20246;-73
2021/03/29 10:24:23;;;;;;;;;;;;;;;14.48;41.46;101269.98;1831526;76;20259;-73
2021/03/29 10:26:53;;;;;;;;;;;;;;;14.56;40.87;101265.34;1860709;76;20233;-73
2021/03/29 10:29:38;;;;;;;;;;;;;;;14.60;40.96;101267.63;1864585;77;20256;-73
2021/03/29 10:32:11;;;;;;;;;;;;;;;14.78;40.77;101273.74;1843497;77;21893;-69
2021/03/29 10:34:40;;;;;;;;;;;;;;;15.06;40.65;101273.63;1842776;77;20326;-70
2021/03/29 10:37:20;;;;;;;;;;;;;;;15.25;40.14;101274.22;1845745;75;20235;-70
2021/03/29 10:39:48;;;;;;;;;;;;;;;15.36;38.07;101270.18;1865424;75;21172;-70
2021/03/29 10:42:16;;;;;;;;;;;;;;;15.31;38.30;101266.56;1849102;76;20223;-70
2021/03/29 10:44:44;;;;;;;;;;;;;;;15.40;38.88;101267.59;1834204;76;22873;-69
2021/03/29 10:47:11;;;;;;;;;;;;;;;15.57;39.14;101272.81;1848956;75;20382;-70
2021/03/29 10:49:39;;;;;;;;;;;;;;;15.73;37.62;101278.05;1835284;77;20177;-70
2021/03/29 10:52:08;;;;;;;;;;;;;;;15.84;38.05;101277.13;1856963;76;20259;-72
2021/03/29 10:54:36;;;;;;;;;;;;;;;15.91;36.22;101282.25;1843099;76;20213;-71
2021/03/29 10:57:04;;;;;;;;;;;;;;;15.94;36.31;101285.16;1851806;77;22069;-71
2021/03/29 10:59:31;;;;;;;;;;;;;;;16.00;35.58;101280.59;1848237;75;20228;-70
2021/03/29 11:01:59;;;;;;;;;;;;;;;15.84;35.24;101279.78;1840902;75;20208;-73
2021/03/29 11:04:27;;;;;;;;;;;;;;;15.68;35.62;101279.42;1831484;75;20295;-73
2021/03/29 11:06:55;;;;;;;;;;;;;;;15.63;36.49;101285.61;1855529;75;20241;-73
2021/03/29 11:09:24;;;;;;;;;;;;;;;15.74;35.06;101274.91;1844158;75;22273;-74
2021/03/29 11:11:54;;;;;;;;;;;;;;;15.71;35.26;101282.65;1828525;77;20556;-72
2021/03/29 11:14:23;;;;;;;;;;;;;;;15.75;35.48;101280.58;1814381;75;20233;-72
2021/03/29 11:16:55;;;;;;;;;;;;;;;15.90;34.41;101281.89;1848295;75;20289;-74
2021/03/29 11:19:22;;;;;;;;;;;;;;;15.89;34.16;101279.37;1857314;77;20636;-73
2021/03/29 11:21:51;;;;;;;;;;;;;;;15.89;34.88;101283.36;1840478;76;22115;-74
2021/03/29 11:24:20;;;;;;;;;;;;;;;16.15;35.22;101278.42;1841563;76;20368;-74
2021/03/29 11:26:51;;;;;;;;;;;;;;;16.40;32.12;101283.23;1840628;77;20295;-79
2021/03/29 11:29:19;;;;;;;;;;;;;;;16.21;33.38;101270.73;1850668;75;20281;-78
2021/03/29 11:31:46;;;;;;;;;;;;;;;16.26;33.93;101272.97;1831314;77;20295;-74
2021/03/29 11:34:14;;;;;;;;;;;;;;;16.51;33.87;101271.63;1850784;77;22126;-73
2021/03/29 11:36:41;;;;;;;;;;;;;;;16.78;32.97;101270.47;1853932;75;20216;-72
2021/03/29 11:39:10;;;;;;;;;;;;;;;16.92;32.20;101275.89;1856614;75;20221;-72
2021/03/29 11:41:38;;;;;;;;;;;;;;;16.85;31.67;101273.42;1860671;76;20210;-76
2021/03/29 11:44:06;;;;;;;;;;;;;;;16.77;32.50;101271.45;1860439;77;20261;-76
2021/03/29 11:46:35;;;;;;;;;;;;;;;16.95;32.40;101282.77;1815562;77;21731;-75
2021/03/29 11:49:04;;;;;;;;;;;;;;;17.21;32.24;101279.03;1848080;75;20227;-74
2021/03/29 11:51:32;;;;;;;;;;;;;;;17.54;31.67;101273.67;1828896;77;20660;-75
2021/03/29 11:54:00;;;;;;;;;;;;;;;17.91;32.06;101281.74;1833082;77;20313;-75
2021/03/29 11:56:27;;;;;;;;;;;;;;;18.30;31.12;101278.38;1850236;77;20241;-74
2021/03/29 11:58:55;;;;;;;;;;;;;;;18.53;30.02;101278.81;1851209;75;21602;-75
2021/03/29 12:04:05;;;;;;;;;;;;;;;18.75;29.48;101277.05;1833314;75;20263;-74
2021/03/29 12:07:15;;;;;;;;;;;;;;;18.88;29.49;101282.84;1832699;77;20215;-74
2021/03/29 12:11:59;;;;;;;;;;;;;;;19.09;27.42;101285.20;1863468;77;22073;-75
2021/03/29 12:14:19;;;;;;;;;;;;;;;19.06;27.96;101282.84;1865154;75;20371;-76
2021/03/29 12:16:49;;;;;;;;;;;;;;;19.25;27.15;101289.02;1845665;75;20273;-73
2021/03/29 12:19:18;;;;;;;;;;;;;;;19.33;26.80;101283.22;1866092;75;20202;-74
2021/03/29 12:21:51;;;;;;;;;;;;;;;19.33;27.01;101283.72;1853530;76;20231;-75
2021/03/29 12:24:21;;;;;;;;;;;;;;;19.26;26.88;101284.84;1836360;77;22016;-74
2021/03/29 12:26:50;;;;;;;;;;;;;;;19.24;26.62;101274.78;1863640;77;20429;-74
2021/03/29 12:29:25;;;;;;;;;;;;;;;19.16;26.71;101280.91;1860860;77;20235;-72
2021/03/29 12:31:48;;;;;;;;;;;;;;;19.24;26.88;101277.96;1862284;77;20261;-70
2021/03/29 12:34:16;;;;;;;;;;;;;;;19.42;27.77;101276.92;1848506;77;20279;-71
2021/03/29 12:36:48;;;;;;;;;;;;;;;19.66;25.95;101287.47;1856965;77;21835;-71
2021/03/29 12:39:27;;;;;;;;;;;;;;;19.89;26.02;101280.58;1836426;75;20235;-71
2021/03/29 12:41:49;;;;;;;;;;;;;;;20.18;26.02;101282.88;1833473;77;20333;-71
2021/03/29 12:44:15;;;;;;;;;;;;;;;20.52;24.67;101284.17;1849575;77;20323;-70
2021/03/29 12:46:47;;;;;;;;;;;;;;;20.20;23.61;101288.08;1850026;77;20575;-71
2021/03/29 12:49:15;;;;;;;;;;;;;;;19.64;24.17;101287.64;1855133;77;22055;-70
2021/03/29 12:51:43;;;;;;;;;;;;;;;19.18;25.00;101287.95;1849839;75;20346;-69
2021/03/29 12:54:21;;;;;;;;;;;;;;;18.88;25.29;101290.04;1844576;77;20592;-70
2021/03/29 12:56:48;;;;;;;;;;;;;;;18.68;25.51;101295.20;1846657;75;20662;-70
2021/03/29 12:59:18;;;;;;;;;;;;;;;18.48;25.76;101293.12;1848967;77;20211;-75
2021/03/29 13:01:46;;;;;;;;;;;;;;;18.22;25.42;101289.81;1834670;75;21889;-72
2021/03/29 13:04:22;;;;;;;;;;;;;;;17.93;26.11;101296.63;1860590;75;20239;-71
2021/03/29 13:06:52;;;;;;;;;;;;;;;17.75;26.74;101295.72;1848751;77;20216;-71
2021/03/29 13:09:33;;;;;;;;;;;;;;;17.59;26.61;101290.97;1831307;77;20311;-71
2021/03/29 13:11:46;;;;;;;;;;;;;;;17.47;26.87;101296.14;1831108;77;20394;-72